EDW2023 EDDB-EGKK
Flight info
| Callsign | EDW2023 |
|---|---|
| Flight time | N/A |
| Altitude | 38000 |
| Route | SUKIP3N SUKIP Y206 BUREL P203 HLZ L980 SAS DCT SOGPO DCT GALSO Q63 ARREK Y4 TEBRA |
| Aircraft | A320/M-SDE3FGHIRWY/LB1 |
Departure
| Time | 2026-05-04 15:23 |
|---|---|
| Airport | Berlin Brandenburg Airport (EDDB) |
Arrival
| Time | N/A |
|---|---|
| Airport | London Gatwick Airport (EGKK) |
| Time | Latitude | Longitude | Altitude | Speed | Heading |
|---|---|---|---|---|---|
| 2026-05-04 14:40 | 52.36388 | 13.50594 | 154 ft | 0 kts | 69° |
| 2026-05-04 14:40 | 52.36388 | 13.50595 | 155 ft | 0 kts | 69° |
| 2026-05-04 14:58 | 52.36388 | 13.50594 | 155 ft | 0 kts | 69° |
| 2026-05-04 15:15 | 52.36384 | 13.50579 | 154 ft | 2 kts | 70° |
| 2026-05-04 15:15 | 52.36379 | 13.50554 | 154 ft | 2 kts | 71° |
| 2026-05-04 15:16 | 52.36369 | 13.50502 | 154 ft | 2 kts | 78° |
| 2026-05-04 15:16 | 52.36367 | 13.50476 | 154 ft | 2 kts | 92° |
| 2026-05-04 15:16 | 52.36379 | 13.50441 | 155 ft | 1 kts | 160° |
| 2026-05-04 15:17 | 52.36380 | 13.50441 | 155 ft | 0 kts | 160° |
| 2026-05-04 15:19 | 52.36308 | 13.50486 | 155 ft | 9 kts | 159° |
| 2026-05-04 15:19 | 52.36254 | 13.50520 | 155 ft | 8 kts | 159° |
| 2026-05-04 15:19 | 52.36165 | 13.50576 | 154 ft | 6 kts | 159° |
| 2026-05-04 15:20 | 52.36117 | 13.50607 | 154 ft | 10 kts | 159° |
| 2026-05-04 15:20 | 52.36056 | 13.50646 | 154 ft | 9 kts | 159° |
| 2026-05-04 15:20 | 52.36002 | 13.50680 | 154 ft | 8 kts | 159° |
| 2026-05-04 15:20 | 52.35943 | 13.50718 | 154 ft | 10 kts | 159° |
| 2026-05-04 15:21 | 52.35859 | 13.50771 | 154 ft | 14 kts | 159° |
| 2026-05-04 15:21 | 52.35746 | 13.50838 | 154 ft | 17 kts | 169° |
| 2026-05-04 15:21 | 52.35538 | 13.50632 | 154 ft | 20 kts | 219° |
| 2026-05-04 15:22 | 52.35429 | 13.50481 | 154 ft | 21 kts | 225° |
| 2026-05-04 15:22 | 52.35344 | 13.50218 | 154 ft | 43 kts | 249° |
| 2026-05-04 15:22 | 52.34813 | 13.47983 | 156 ft | 157 kts | 249° |
| 2026-05-04 15:23 | 52.34377 | 13.46239 | 627 ft | 167 kts | 245° |
| 2026-05-04 15:23 | 52.33723 | 13.44679 | 1387 ft | 169 kts | 234° |
| 2026-05-04 15:23 | 52.32961 | 13.43113 | 1878 ft | 186 kts | 235° |
| 2026-05-04 15:23 | 52.32068 | 13.41380 | 2255 ft | 212 kts | 231° |
| 2026-05-04 15:24 | 52.30015 | 13.37613 | 3793 ft | 226 kts | 229° |
| 2026-05-04 15:24 | 52.27903 | 13.33728 | 5178 ft | 230 kts | 229° |
| 2026-05-04 15:25 | 52.26842 | 13.31767 | 6082 ft | 230 kts | 230° |
| 2026-05-04 15:25 | 52.25768 | 13.29776 | 6974 ft | 231 kts | 229° |
| 2026-05-04 15:25 | 52.24706 | 13.27763 | 7737 ft | 236 kts | 235° |
| 2026-05-04 15:26 | 52.23209 | 13.22650 | 8818 ft | 267 kts | 248° |
| 2026-05-04 15:26 | 52.22501 | 13.19809 | 9634 ft | 272 kts | 248° |
| 2026-05-04 15:26 | 52.20997 | 13.13791 | 10536 ft | 308 kts | 248° |
| 2026-05-04 15:27 | 52.20174 | 13.10506 | 11129 ft | 317 kts | 248° |
| 2026-05-04 15:27 | 52.18467 | 13.03756 | 12632 ft | 326 kts | 248° |
| 2026-05-04 15:28 | 52.16713 | 12.96850 | 14103 ft | 334 kts | 248° |
| 2026-05-04 15:28 | 52.16056 | 12.93213 | 14773 ft | 337 kts | 256° |
| 2026-05-04 15:28 | 52.15021 | 12.85774 | 16189 ft | 341 kts | 256° |
| 2026-05-04 15:29 | 52.14484 | 12.81957 | 16895 ft | 343 kts | 256° |
| 2026-05-04 15:30 | 52.14123 | 12.66508 | 19385 ft | 362 kts | 290° |
| 2026-05-04 15:30 | 52.19196 | 12.57057 | 21117 ft | 380 kts | 314° |
| 2026-05-04 15:31 | 52.23135 | 12.51189 | 22291 ft | 384 kts | 310° |
| 2026-05-04 15:31 | 52.24818 | 12.47834 | 22849 ft | 382 kts | 300° |
| 2026-05-04 15:32 | 52.27389 | 12.36518 | 24248 ft | 380 kts | 280° |
| 2026-05-04 15:32 | 52.28573 | 12.28050 | 25152 ft | 384 kts | 280° |
| 2026-05-04 15:33 | 52.29761 | 12.19530 | 26013 ft | 387 kts | 279° |
| 2026-05-04 15:34 | 52.31559 | 12.06575 | 27256 ft | 392 kts | 279° |
| 2026-05-04 15:34 | 52.32157 | 12.02228 | 27652 ft | 393 kts | 279° |
| 2026-05-04 15:34 | 52.33365 | 11.93456 | 28459 ft | 396 kts | 279° |
| 2026-05-04 15:35 | 52.34446 | 11.84656 | 29191 ft | 397 kts | 272° |
| 2026-05-04 15:35 | 52.34575 | 11.80157 | 29542 ft | 397 kts | 269° |
| 2026-05-04 15:35 | 52.34665 | 11.75627 | 29887 ft | 398 kts | 269° |